sensor_id;sensor_type;location;lat;lon;timestamp;temperature;humidity
3854;DHT22;1942;48.770;8.934;2022-07-12T00:00:33;14.50;99.90
3854;DHT22;1942;48.770;8.934;2022-07-12T00:03:00;14.50;99.90
3854;DHT22;1942;48.770;8.934;2022-07-12T00:05:28;14.50;99.90
3854;DHT22;1942;48.770;8.934;2022-07-12T00:07:55;14.50;99.90
3854;DHT22;1942;48.770;8.934;2022-07-12T00:10:21;14.40;99.90
3854;DHT22;1942;48.770;8.934;2022-07-12T00:12:48;14.50;99.90
3854;DHT22;1942;48.770;8.934;2022-07-12T00:15:15;14.40;99.90
3854;DHT22;1942;48.770;8.934;2022-07-12T00:17:42;14.40;99.90
3854;DHT22;1942;48.770;8.934;2022-07-12T00:20:09;14.40;99.90
3854;DHT22;1942;48.770;8.934;2022-07-12T00:22:38;14.40;99.90
3854;DHT22;1942;48.770;8.934;2022-07-12T00:25:05;14.40;99.90
3854;DHT22;1942;48.770;8.934;2022-07-12T00:27:32;14.40;99.90
3854;DHT22;1942;48.770;8.934;2022-07-12T00:29:59;14.40;99.90
3854;DHT22;1942;48.770;8.934;2022-07-12T00:32:26;14.40;99.90
3854;DHT22;1942;48.770;8.934;2022-07-12T00:34:52;14.40;99.90
3854;DHT22;1942;48.770;8.934;2022-07-12T00:37:19;14.50;99.90
3854;DHT22;1942;48.770;8.934;2022-07-12T00:39:48;14.50;99.90
3854;DHT22;1942;48.770;8.934;2022-07-12T00:42:15;14.50;99.90
3854;DHT22;1942;48.770;8.934;2022-07-12T00:44:41;14.50;99.90
3854;DHT22;1942;48.770;8.934;2022-07-12T00:47:19;14.50;99.90
3854;DHT22;1942;48.770;8.934;2022-07-12T00:49:48;14.40;99.90
3854;DHT22;1942;48.770;8.934;2022-07-12T00:52:15;14.30;99.90
3854;DHT22;1942;48.770;8.934;2022-07-12T00:54:41;14.20;99.90
3854;DHT22;1942;48.770;8.934;2022-07-12T00:57:10;14.20;99.90
3854;DHT22;1942;48.770;8.934;2022-07-12T00:59:36;14.20;99.90
3854;DHT22;1942;48.770;8.934;2022-07-12T01:02:03;14.20;99.90
3854;DHT22;1942;48.770;8.934;2022-07-12T01:04:30;14.10;99.90
3854;DHT22;1942;48.770;8.934;2022-07-12T01:06:57;14.10;99.90
3854;DHT22;1942;48.770;8.934;2022-07-12T01:09:24;14.00;99.90
3854;DHT22;1942;48.770;8.934;2022-07-12T01:11:50;14.00;99.90
3854;DHT22;1942;48.770;8.934;2022-07-12T01:14:19;13.90;99.90
3854;DHT22;1942;48.770;8.934;2022-07-12T01:16:46;13.80;99.90
3854;DHT22;1942;48.770;8.934;2022-07-12T01:19:17;13.70;99.90
3854;DHT22;1942;48.770;8.934;2022-07-12T01:21:47;13.60;99.90
3854;DHT22;1942;48.770;8.934;2022-07-12T01:24:15;13.60;99.90
3854;DHT22;1942;48.770;8.934;2022-07-12T01:26:43;13.60;99.90
3854;DHT22;1942;48.770;8.934;2022-07-12T01:29:10;13.60;99.90
3854;DHT22;1942;48.770;8.934;2022-07-12T01:31:37;13.60;99.90
3854;DHT22;1942;48.770;8.934;2022-07-12T01:34:04;13.70;99.90
3854;DHT22;1942;48.770;8.934;2022-07-12T01:36:32;13.70;99.90
3854;DHT22;1942;48.770;8.934;2022-07-12T01:38:59;13.60;99.90
3854;DHT22;1942;48.770;8.934;2022-07-12T01:41:28;13.60;99.90
3854;DHT22;1942;48.770;8.934;2022-07-12T01:43:54;13.50;99.90
3854;DHT22;1942;48.770;8.934;2022-07-12T01:46:21;13.50;99.90
3854;DHT22;1942;48.770;8.934;2022-07-12T01:48:48;13.50;99.90
3854;DHT22;1942;48.770;8.934;2022-07-12T01:51:15;13.60;99.90
3854;DHT22;1942;48.770;8.934;2022-07-12T01:53:41;13.60;99.90
3854;DHT22;1942;48.770;8.934;2022-07-12T01:56:08;13.60;99.90
3854;DHT22;1942;48.770;8.934;2022-07-12T01:58:36;13.50;99.90
3854;DHT22;1942;48.770;8.934;2022-07-12T02:01:04;13.50;99.90
3854;DHT22;1942;48.770;8.934;2022-07-12T02:03:34;13.50;99.90
3854;DHT22;1942;48.770;8.934;2022-07-12T02:06:01;13.50;99.90
3854;DHT22;1942;48.770;8.934;2022-07-12T02:08:28;13.50;99.90
3854;DHT22;1942;48.770;8.934;2022-07-12T02:10:55;13.50;99.90
3854;DHT22;1942;48.770;8.934;2022-07-12T02:13:21;13.50;99.90
3854;DHT22;1942;48.770;8.934;2022-07-12T02:15:49;13.40;99.90
3854;DHT22;1942;48.770;8.934;2022-07-12T02:18:17;13.40;99.90
3854;DHT22;1942;48.770;8.934;2022-07-12T02:20:43;13.30;99.90
3854;DHT22;1942;48.770;8.934;2022-07-12T02:23:10;13.20;99.90
3854;DHT22;1942;48.770;8.934;2022-07-12T02:25:37;13.20;99.90
3854;DHT22;1942;48.770;8.934;2022-07-12T02:28:04;13.20;99.90
3854;DHT22;1942;48.770;8.934;2022-07-12T02:30:30;13.20;99.90
3854;DHT22;1942;48.770;8.934;2022-07-12T02:32:58;13.20;99.90
3854;DHT22;1942;48.770;8.934;2022-07-12T02:35:25;13.20;99.90
3854;DHT22;1942;48.770;8.934;2022-07-12T02:37:52;13.20;99.90
3854;DHT22;1942;48.770;8.934;2022-07-12T02:40:19;13.20;99.90
3854;DHT22;1942;48.770;8.934;2022-07-12T02:43:03;13.20;99.90
3854;DHT22;1942;48.770;8.934;2022-07-12T02:45:30;13.10;99.90
3854;DHT22;1942;48.770;8.934;2022-07-12T02:47:58;13.00;99.90
3854;DHT22;1942;48.770;8.934;2022-07-12T02:50:25;13.00;99.90
3854;DHT22;1942;48.770;8.934;2022-07-12T02:52:52;13.00;99.90
3854;DHT22;1942;48.770;8.934;2022-07-12T02:55:18;13.00;99.90
3854;DHT22;1942;48.770;8.934;2022-07-12T02:57:45;13.00;99.90
3854;DHT22;1942;48.770;8.934;2022-07-12T03:00:13;13.00;99.90
3854;DHT22;1942;48.770;8.934;2022-07-12T03:02:39;13.00;99.90
3854;DHT22;1942;48.770;8.934;2022-07-12T03:05:08;12.90;99.90
3854;DHT22;1942;48.770;8.934;2022-07-12T03:07:35;12.90;99.90
3854;DHT22;1942;48.770;8.934;2022-07-12T03:10:03;12.80;99.90
3854;DHT22;1942;48.770;8.934;2022-07-12T03:12:30;12.80;99.90
3854;DHT22;1942;48.770;8.934;2022-07-12T03:14:57;12.80;99.90
3854;DHT22;1942;48.770;8.934;2022-07-12T03:17:23;12.70;99.90
3854;DHT22;1942;48.770;8.934;2022-07-12T03:19:50;12.70;99.90
3854;DHT22;1942;48.770;8.934;2022-07-12T03:22:18;12.70;99.90
3854;DHT22;1942;48.770;8.934;2022-07-12T03:24:45;12.70;99.90
3854;DHT22;1942;48.770;8.934;2022-07-12T03:27:12;12.70;99.90
3854;DHT22;1942;48.770;8.934;2022-07-12T03:29:39;12.80;99.90
3854;DHT22;1942;48.770;8.934;2022-07-12T03:32:06;12.80;99.90
3854;DHT22;1942;48.770;8.934;2022-07-12T03:34:33;12.80;99.90
3854;DHT22;1942;48.770;8.934;2022-07-12T03:37:00;12.80;99.90
3854;DHT22;1942;48.770;8.934;2022-07-12T03:39:28;12.90;99.90
3854;DHT22;1942;48.770;8.934;2022-07-12T03:41:55;12.90;99.90
3854;DHT22;1942;48.770;8.934;2022-07-12T03:44:22;12.90;99.90
3854;DHT22;1942;48.770;8.934;2022-07-12T03:46:48;12.90;99.90
3854;DHT22;1942;48.770;8.934;2022-07-12T03:49:15;12.90;99.90
3854;DHT22;1942;48.770;8.934;2022-07-12T03:51:42;12.90;99.90
3854;DHT22;1942;48.770;8.934;2022-07-12T03:54:08;12.80;99.90
3854;DHT22;1942;48.770;8.934;2022-07-12T03:56:37;12.70;99.90
3854;DHT22;1942;48.770;8.934;2022-07-12T03:59:23;12.70;99.90
3854;DHT22;1942;48.770;8.934;2022-07-12T04:01:50;12.60;99.90
3854;DHT22;1942;48.770;8.934;2022-07-12T04:04:17;12.60;99.90
3854;DHT22;1942;48.770;8.934;2022-07-12T04:06:44;12.60;99.90
3854;DHT22;1942;48.770;8.934;2022-07-12T04:09:11;12.60;99.90
3854;DHT22;1942;48.770;8.934;2022-07-12T04:11:39;12.60;99.90
3854;DHT22;1942;48.770;8.934;2022-07-12T04:14:06;12.60;99.90
3854;DHT22;1942;48.770;8.934;2022-07-12T04:16:33;12.50;99.90
3854;DHT22;1942;48.770;8.934;2022-07-12T04:19:00;12.50;99.90
3854;DHT22;1942;48.770;8.934;2022-07-12T04:21:26;12.50;99.90
3854;DHT22;1942;48.770;8.934;2022-07-12T04:23:53;12.40;99.90
3854;DHT22;1942;48.770;8.934;2022-07-12T04:26:20;12.40;99.90
3854;DHT22;1942;48.770;8.934;2022-07-12T04:28:48;12.50;99.90
3854;DHT22;1942;48.770;8.934;2022-07-12T04:31:14;12.60;99.90
3854;DHT22;1942;48.770;8.934;2022-07-12T04:33:41;12.60;99.90
3854;DHT22;1942;48.770;8.934;2022-07-12T04:36:08;12.70;99.90
3854;DHT22;1942;48.770;8.934;2022-07-12T04:38:34;12.70;99.90
3854;DHT22;1942;48.770;8.934;2022-07-12T04:41:01;12.80;99.90
3854;DHT22;1942;48.770;8.934;2022-07-12T04:43:28;12.90;99.90
3854;DHT22;1942;48.770;8.934;2022-07-12T04:45:56;12.90;99.90
3854;DHT22;1942;48.770;8.934;2022-07-12T04:48:31;13.00;99.90
3854;DHT22;1942;48.770;8.934;2022-07-12T04:50:59;13.10;99.90
3854;DHT22;1942;48.770;8.934;2022-07-12T04:53:25;13.20;99.90
3854;DHT22;1942;48.770;8.934;2022-07-12T04:55:53;13.30;99.90
3854;DHT22;1942;48.770;8.934;2022-07-12T04:58:20;13.30;99.90
3854;DHT22;1942;48.770;8.934;2022-07-12T05:00:47;13.40;99.90
3854;DHT22;1942;48.770;8.934;2022-07-12T05:03:15;13.50;99.90
3854;DHT22;1942;48.770;8.934;2022-07-12T05:05:42;13.50;99.90
3854;DHT22;1942;48.770;8.934;2022-07-12T05:08:08;13.60;99.90
3854;DHT22;1942;48.770;8.934;2022-07-12T05:10:35;13.60;99.90
3854;DHT22;1942;48.770;8.934;2022-07-12T05:13:02;13.70;99.90
3854;DHT22;1942;48.770;8.934;2022-07-12T05:15:29;13.70;99.90
3854;DHT22;1942;48.770;8.934;2022-07-12T05:17:55;13.80;99.90
3854;DHT22;1942;48.770;8.934;2022-07-12T05:20:24;13.80;99.90
3854;DHT22;1942;48.770;8.934;2022-07-12T05:22:50;13.80;99.90
3854;DHT22;1942;48.770;8.934;2022-07-12T05:25:17;13.90;99.90
3854;DHT22;1942;48.770;8.934;2022-07-12T05:27:45;13.90;99.90
3854;DHT22;1942;48.770;8.934;2022-07-12T05:30:12;14.00;99.90
3854;DHT22;1942;48.770;8.934;2022-07-12T05:32:39;14.10;99.90
3854;DHT22;1942;48.770;8.934;2022-07-12T05:35:07;14.10;99.90
3854;DHT22;1942;48.770;8.934;2022-07-12T05:37:35;14.10;99.90
3854;DHT22;1942;48.770;8.934;2022-07-12T05:40:02;14.20;99.90
3854;DHT22;1942;48.770;8.934;2022-07-12T05:42:28;14.30;99.90
3854;DHT22;1942;48.770;8.934;2022-07-12T05:44:55;14.30;99.90
3854;DHT22;1942;48.770;8.934;2022-07-12T05:47:22;14.40;99.90
3854;DHT22;1942;48.770;8.934;2022-07-12T05:49:49;14.50;99.90
3854;DHT22;1942;48.770;8.934;2022-07-12T05:52:15;14.60;99.90
3854;DHT22;1942;48.770;8.934;2022-07-12T05:55:01;14.70;99.90
3854;DHT22;1942;48.770;8.934;2022-07-12T05:57:28;14.80;99.90
3854;DHT22;1942;48.770;8.934;2022-07-12T05:59:55;14.80;99.90
3854;DHT22;1942;48.770;8.934;2022-07-12T06:02:22;14.90;99.90
3854;DHT22;1942;48.770;8.934;2022-07-12T06:04:48;14.90;99.90
3854;DHT22;1942;48.770;8.934;2022-07-12T06:07:15;15.00;99.90
3854;DHT22;1942;48.770;8.934;2022-07-12T06:09:42;15.20;99.90
3854;DHT22;1942;48.770;8.934;2022-07-12T06:12:10;15.30;99.90
3854;DHT22;1942;48.770;8.934;2022-07-12T06:14:36;15.30;99.90
3854;DHT22;1942;48.770;8.934;2022-07-12T06:17:04;15.50;99.90
3854;DHT22;1942;48.770;8.934;2022-07-12T06:19:32;15.60;99.90
3854;DHT22;1942;48.770;8.934;2022-07-12T06:21:59;15.70;99.90
3854;DHT22;1942;48.770;8.934;2022-07-12T06:24:26;15.80;99.90
3854;DHT22;1942;48.770;8.934;2022-07-12T06:26:53;15.90;99.90
3854;DHT22;1942;48.770;8.934;2022-07-12T06:29:21;16.00;99.90
3854;DHT22;1942;48.770;8.934;2022-07-12T06:31:48;16.10;99.90
3854;DHT22;1942;48.770;8.934;2022-07-12T06:34:14;16.20;99.90
3854;DHT22;1942;48.770;8.934;2022-07-12T06:36:41;16.20;99.90
3854;DHT22;1942;48.770;8.934;2022-07-12T06:39:09;16.20;99.90
3854;DHT22;1942;48.770;8.934;2022-07-12T06:41:35;16.30;99.90
3854;DHT22;1942;48.770;8.934;2022-07-12T06:44:03;16.40;99.90
3854;DHT22;1942;48.770;8.934;2022-07-12T06:46:31;16.50;99.90
3854;DHT22;1942;48.770;8.934;2022-07-12T06:48:57;16.60;99.90
3854;DHT22;1942;48.770;8.934;2022-07-12T06:51:24;16.70;99.90
3854;DHT22;1942;48.770;8.934;2022-07-12T06:53:51;16.80;99.90
3854;DHT22;1942;48.770;8.934;2022-07-12T06:56:18;16.90;99.90
3854;DHT22;1942;48.770;8.934;2022-07-12T06:58:44;17.10;99.90
3854;DHT22;1942;48.770;8.934;2022-07-12T07:01:11;17.10;99.90
3854;DHT22;1942;48.770;8.934;2022-07-12T07:03:39;17.20;99.90
3854;DHT22;1942;48.770;8.934;2022-07-12T07:06:06;17.30;99.90
3854;DHT22;1942;48.770;8.934;2022-07-12T07:08:32;17.50;99.90
3854;DHT22;1942;48.770;8.934;2022-07-12T07:10:59;17.50;99.90
3854;DHT22;1942;48.770;8.934;2022-07-12T07:13:26;17.60;99.90
3854;DHT22;1942;48.770;8.934;2022-07-12T07:15:52;17.70;99.90
3854;DHT22;1942;48.770;8.934;2022-07-12T07:18:19;17.70;99.90
3854;DHT22;1942;48.770;8.934;2022-07-12T07:20:48;17.80;99.90
3854;DHT22;1942;48.770;8.934;2022-07-12T07:23:14;17.80;99.90
3854;DHT22;1942;48.770;8.934;2022-07-12T07:25:42;17.90;99.90
3854;DHT22;1942;48.770;8.934;2022-07-12T07:28:09;17.90;99.90
3854;DHT22;1942;48.770;8.934;2022-07-12T07:30:36;18.00;99.90
3854;DHT22;1942;48.770;8.934;2022-07-12T07:33:20;18.20;99.90
3854;DHT22;1942;48.770;8.934;2022-07-12T07:35:49;18.20;99.90
3854;DHT22;1942;48.770;8.934;2022-07-12T07:38:17;18.20;99.90
3854;DHT22;1942;48.770;8.934;2022-07-12T07:40:44;18.30;99.90
3854;DHT22;1942;48.770;8.934;2022-07-12T07:43:11;18.30;99.90
3854;DHT22;1942;48.770;8.934;2022-07-12T07:45:37;18.40;99.90
3854;DHT22;1942;48.770;8.934;2022-07-12T07:48:04;18.50;99.90
3854;DHT22;1942;48.770;8.934;2022-07-12T07:50:31;18.60;99.90
3854;DHT22;1942;48.770;8.934;2022-07-12T07:52:59;18.80;99.90
3854;DHT22;1942;48.770;8.934;2022-07-12T07:55:26;18.80;99.90
3854;DHT22;1942;48.770;8.934;2022-07-12T07:57:53;18.90;99.90
3854;DHT22;1942;48.770;8.934;2022-07-12T08:00:20;19.00;99.90
3854;DHT22;1942;48.770;8.934;2022-07-12T08:02:46;19.10;99.90
3854;DHT22;1942;48.770;8.934;2022-07-12T08:05:13;19.20;99.90
3854;DHT22;1942;48.770;8.934;2022-07-12T08:07:40;19.30;99.90
3854;DHT22;1942;48.770;8.934;2022-07-12T08:10:08;19.40;99.90
3854;DHT22;1942;48.770;8.934;2022-07-12T08:12:35;19.50;99.90
3854;DHT22;1942;48.770;8.934;2022-07-12T08:15:02;19.70;99.90
3854;DHT22;1942;48.770;8.934;2022-07-12T08:17:29;19.90;99.90
3854;DHT22;1942;48.770;8.934;2022-07-12T08:19:55;20.10;99.90
3854;DHT22;1942;48.770;8.934;2022-07-12T08:22:22;20.20;99.90
3854;DHT22;1942;48.770;8.934;2022-07-12T08:24:49;20.40;99.90
3854;DHT22;1942;48.770;8.934;2022-07-12T08:27:17;20.70;99.90
3854;DHT22;1942;48.770;8.934;2022-07-12T08:29:44;20.90;99.90
3854;DHT22;1942;48.770;8.934;2022-07-12T08:32:11;21.00;99.90
3854;DHT22;1942;48.770;8.934;2022-07-12T08:34:37;21.30;99.90
3854;DHT22;1942;48.770;8.934;2022-07-12T08:37:04;21.50;99.90
3854;DHT22;1942;48.770;8.934;2022-07-12T08:39:31;21.60;99.90
3854;DHT22;1942;48.770;8.934;2022-07-12T08:41:58;21.70;99.90
3854;DHT22;1942;48.770;8.934;2022-07-12T08:44:26;21.90;99.90
3854;DHT22;1942;48.770;8.934;2022-07-12T08:46:52;22.10;99.90
3854;DHT22;1942;48.770;8.934;2022-07-12T08:49:19;22.30;99.90
3854;DHT22;1942;48.770;8.934;2022-07-12T08:51:46;22.50;99.90
3854;DHT22;1942;48.770;8.934;2022-07-12T08:54:14;22.50;99.40
3854;DHT22;1942;48.770;8.934;2022-07-12T08:56:42;22.50;99.00
3854;DHT22;1942;48.770;8.934;2022-07-12T08:59:10;22.80;99.00
3854;DHT22;1942;48.770;8.934;2022-07-12T09:01:44;22.80;99.20
3854;DHT22;1942;48.770;8.934;2022-07-12T09:04:15;23.10;99.70
3854;DHT22;1942;48.770;8.934;2022-07-12T09:06:42;23.20;96.70
3854;DHT22;1942;48.770;8.934;2022-07-12T09:09:09;23.30;98.00
3854;DHT22;1942;48.770;8.934;2022-07-12T09:11:37;23.30;97.40
3854;DHT22;1942;48.770;8.934;2022-07-12T09:14:04;23.20;97.40
3854;DHT22;1942;48.770;8.934;2022-07-12T09:16:31;23.10;97.30
3854;DHT22;1942;48.770;8.934;2022-07-12T09:19:16;23.10;96.00
3854;DHT22;1942;48.770;8.934;2022-07-12T09:21:48;23.20;97.20
3854;DHT22;1942;48.770;8.934;2022-07-12T09:24:16;23.50;98.50
3854;DHT22;1942;48.770;8.934;2022-07-12T09:26:44;23.70;98.40
3854;DHT22;1942;48.770;8.934;2022-07-12T09:29:13;24.00;96.70
3854;DHT22;1942;48.770;8.934;2022-07-12T09:31:41;24.10;95.80
3854;DHT22;1942;48.770;8.934;2022-07-12T09:34:29;24.40;95.80
3854;DHT22;1942;48.770;8.934;2022-07-12T09:37:14;24.40;93.50
3854;DHT22;1942;48.770;8.934;2022-07-12T09:39:41;24.60;93.10
3854;DHT22;1942;48.770;8.934;2022-07-12T09:42:09;24.70;93.90
3854;DHT22;1942;48.770;8.934;2022-07-12T09:44:36;24.80;92.30
3854;DHT22;1942;48.770;8.934;2022-07-12T09:47:04;24.80;92.00
3854;DHT22;1942;48.770;8.934;2022-07-12T09:49:35;24.90;91.50
3854;DHT22;1942;48.770;8.934;2022-07-12T09:52:05;24.90;92.00
3854;DHT22;1942;48.770;8.934;2022-07-12T09:54:35;25.00;91.00
3854;DHT22;1942;48.770;8.934;2022-07-12T09:57:13;25.00;91.80
3854;DHT22;1942;48.770;8.934;2022-07-12T09:59:41;25.10;92.40
3854;DHT22;1942;48.770;8.934;2022-07-12T10:02:08;25.40;93.60
3854;DHT22;1942;48.770;8.934;2022-07-12T10:04:42;25.50;91.80
3854;DHT22;1942;48.770;8.934;2022-07-12T10:07:10;25.70;92.00
3854;DHT22;1942;48.770;8.934;2022-07-12T10:09:39;25.80;91.90
3854;DHT22;1942;48.770;8.934;2022-07-12T10:12:08;25.90;91.10
3854;DHT22;1942;48.770;8.934;2022-07-12T10:14:35;25.90;90.00
3854;DHT22;1942;48.770;8.934;2022-07-12T10:17:05;26.10;91.30
3854;DHT22;1942;48.770;8.934;2022-07-12T10:19:35;26.20;90.00
3854;DHT22;1942;48.770;8.934;2022-07-12T10:22:05;26.20;90.60
3854;DHT22;1942;48.770;8.934;2022-07-12T10:24:48;26.40;88.50
3854;DHT22;1942;48.770;8.934;2022-07-12T10:27:33;26.40;88.40
3854;DHT22;1942;48.770;8.934;2022-07-12T10:30:17;26.50;85.80
3854;DHT22;1942;48.770;8.934;2022-07-12T10:32:45;26.50;84.70
3854;DHT22;1942;48.770;8.934;2022-07-12T10:35:13;26.50;88.40
3854;DHT22;1942;48.770;8.934;2022-07-12T10:38:17;26.70;87.80
3854;DHT22;1942;48.770;8.934;2022-07-12T10:40:46;26.60;85.30
3854;DHT22;1942;48.770;8.934;2022-07-12T10:43:18;26.50;86.00
3854;DHT22;1942;48.770;8.934;2022-07-12T10:45:46;26.60;85.80
3854;DHT22;1942;48.770;8.934;2022-07-12T10:48:21;26.70;85.00
3854;DHT22;1942;48.770;8.934;2022-07-12T10:50:55;26.70;84.50
3854;DHT22;1942;48.770;8.934;2022-07-12T10:53:29;27.00;86.10
3854;DHT22;1942;48.770;8.934;2022-07-12T10:56:18;27.20;84.40
3854;DHT22;1942;48.770;8.934;2022-07-12T10:58:47;27.40;85.00
3854;DHT22;1942;48.770;8.934;2022-07-12T11:01:16;27.40;83.20
3854;DHT22;1942;48.770;8.934;2022-07-12T11:03:44;27.50;81.50
3854;DHT22;1942;48.770;8.934;2022-07-12T11:06:13;27.60;83.50
3854;DHT22;1942;48.770;8.934;2022-07-12T11:08:49;27.50;79.30
3854;DHT22;1942;48.770;8.934;2022-07-12T11:11:16;27.60;83.60
3854;DHT22;1942;48.770;8.934;2022-07-12T11:13:43;27.70;81.80
3854;DHT22;1942;48.770;8.934;2022-07-12T11:16:10;28.00;81.70
3854;DHT22;1942;48.770;8.934;2022-07-12T11:18:37;28.00;80.10
3854;DHT22;1942;48.770;8.934;2022-07-12T11:21:05;28.20;79.20
3854;DHT22;1942;48.770;8.934;2022-07-12T11:23:32;28.40;76.60
3854;DHT22;1942;48.770;8.934;2022-07-12T11:26:01;28.50;78.60
3854;DHT22;1942;48.770;8.934;2022-07-12T11:28:30;28.10;78.30
3854;DHT22;1942;48.770;8.934;2022-07-12T11:31:04;28.20;82.00
3854;DHT22;1942;48.770;8.934;2022-07-12T11:33:33;28.20;80.10
3854;DHT22;1942;48.770;8.934;2022-07-12T11:36:03;28.00;76.20
3854;DHT22;1942;48.770;8.934;2022-07-12T11:38:30;27.90;76.40
3854;DHT22;1942;48.770;8.934;2022-07-12T11:40:57;27.90;78.80
3854;DHT22;1942;48.770;8.934;2022-07-12T11:43:26;28.20;77.10
3854;DHT22;1942;48.770;8.934;2022-07-12T11:45:53;28.30;78.00
3854;DHT22;1942;48.770;8.934;2022-07-12T11:48:22;28.20;80.30
3854;DHT22;1942;48.770;8.934;2022-07-12T11:50:51;28.30;79.70
3854;DHT22;1942;48.770;8.934;2022-07-12T11:53:19;28.40;78.70
3854;DHT22;1942;48.770;8.934;2022-07-12T11:55:46;28.40;74.80
3854;DHT22;1942;48.770;8.934;2022-07-12T11:58:14;28.40;78.10
3854;DHT22;1942;48.770;8.934;2022-07-12T12:00:43;28.50;76.60
3854;DHT22;1942;48.770;8.934;2022-07-12T12:03:10;28.50;76.60
3854;DHT22;1942;48.770;8.934;2022-07-12T12:05:37;28.80;80.10
3854;DHT22;1942;48.770;8.934;2022-07-12T12:08:05;29.00;77.50
3854;DHT22;1942;48.770;8.934;2022-07-12T12:10:32;29.30;74.00
3854;DHT22;1942;48.770;8.934;2022-07-12T12:13:00;29.40;76.00
3854;DHT22;1942;48.770;8.934;2022-07-12T12:15:28;29.30;75.10
3854;DHT22;1942;48.770;8.934;2022-07-12T12:17:59;29.40;73.10
3854;DHT22;1942;48.770;8.934;2022-07-12T12:20:29;29.20;71.10
3854;DHT22;1942;48.770;8.934;2022-07-12T12:22:58;28.90;71.80
3854;DHT22;1942;48.770;8.934;2022-07-12T12:25:27;28.80;73.90
3854;DHT22;1942;48.770;8.934;2022-07-12T12:27:55;28.90;71.50
3854;DHT22;1942;48.770;8.934;2022-07-12T12:30:22;29.10;74.00
3854;DHT22;1942;48.770;8.934;2022-07-12T12:32:51;29.30;70.30
3854;DHT22;1942;48.770;8.934;2022-07-12T12:35:21;29.40;72.10
3854;DHT22;1942;48.770;8.934;2022-07-12T12:37:52;29.80;69.80
3854;DHT22;1942;48.770;8.934;2022-07-12T12:40:20;29.80;78.10
3854;DHT22;1942;48.770;8.934;2022-07-12T12:42:48;29.60;69.10
3854;DHT22;1942;48.770;8.934;2022-07-12T12:45:22;29.70;70.60
3854;DHT22;1942;48.770;8.934;2022-07-12T12:47:57;29.60;69.90
3854;DHT22;1942;48.770;8.934;2022-07-12T12:50:45;29.70;70.60
3854;DHT22;1942;48.770;8.934;2022-07-12T12:53:14;29.90;70.60
3854;DHT22;1942;48.770;8.934;2022-07-12T12:55:41;30.00;71.80
3854;DHT22;1942;48.770;8.934;2022-07-12T12:58:09;30.00;70.40
3854;DHT22;1942;48.770;8.934;2022-07-12T13:00:37;30.30;69.60
3854;DHT22;1942;48.770;8.934;2022-07-12T13:03:05;30.40;69.80
3854;DHT22;1942;48.770;8.934;2022-07-12T13:05:32;30.10;67.10
3854;DHT22;1942;48.770;8.934;2022-07-12T13:08:00;29.80;68.60
3854;DHT22;1942;48.770;8.934;2022-07-12T13:10:28;29.60;69.90
3854;DHT22;1942;48.770;8.934;2022-07-12T13:12:54;29.60;69.60
3854;DHT22;1942;48.770;8.934;2022-07-12T13:15:21;29.70;71.20
3854;DHT22;1942;48.770;8.934;2022-07-12T13:17:48;30.00;74.30
3854;DHT22;1942;48.770;8.934;2022-07-12T13:20:15;30.20;73.00
3854;DHT22;1942;48.770;8.934;2022-07-12T13:22:43;30.30;71.60
3854;DHT22;1942;48.770;8.934;2022-07-12T13:25:13;30.00;67.20
3854;DHT22;1942;48.770;8.934;2022-07-12T13:27:41;30.30;71.20
3854;DHT22;1942;48.770;8.934;2022-07-12T13:30:09;30.40;69.30
3854;DHT22;1942;48.770;8.934;2022-07-12T13:32:37;30.50;70.20
3854;DHT22;1942;48.770;8.934;2022-07-12T13:35:06;30.60;68.90
3854;DHT22;1942;48.770;8.934;2022-07-12T13:37:33;30.60;69.50
3854;DHT22;1942;48.770;8.934;2022-07-12T13:40:00;30.50;68.00
3854;DHT22;1942;48.770;8.934;2022-07-12T13:42:46;30.70;68.70
3854;DHT22;1942;48.770;8.934;2022-07-12T13:45:16;30.70;70.20
3854;DHT22;1942;48.770;8.934;2022-07-12T13:47:44;30.40;69.60
3854;DHT22;1942;48.770;8.934;2022-07-12T13:50:13;30.30;70.20
3854;DHT22;1942;48.770;8.934;2022-07-12T13:52:40;30.00;66.30
3854;DHT22;1942;48.770;8.934;2022-07-12T13:55:08;30.10;69.60
3854;DHT22;1942;48.770;8.934;2022-07-12T13:57:35;30.10;67.80
3854;DHT22;1942;48.770;8.934;2022-07-12T14:00:07;30.30;68.00
3854;DHT22;1942;48.770;8.934;2022-07-12T14:02:37;30.40;69.10
3854;DHT22;1942;48.770;8.934;2022-07-12T14:05:04;30.70;68.70
3854;DHT22;1942;48.770;8.934;2022-07-12T14:07:32;30.60;68.30
3854;DHT22;1942;48.770;8.934;2022-07-12T14:10:00;30.30;67.90
3854;DHT22;1942;48.770;8.934;2022-07-12T14:12:26;30.20;65.50
3854;DHT22;1942;48.770;8.934;2022-07-12T14:14:53;30.50;67.60
3854;DHT22;1942;48.770;8.934;2022-07-12T14:17:39;30.40;67.70
3854;DHT22;1942;48.770;8.934;2022-07-12T14:20:06;30.60;70.60
3854;DHT22;1942;48.770;8.934;2022-07-12T14:22:34;30.50;66.50
3854;DHT22;1942;48.770;8.934;2022-07-12T14:25:02;30.40;68.70
3854;DHT22;1942;48.770;8.934;2022-07-12T14:27:30;30.70;67.90
3854;DHT22;1942;48.770;8.934;2022-07-12T14:29:57;30.90;70.80
3854;DHT22;1942;48.770;8.934;2022-07-12T14:32:23;31.00;69.00
3854;DHT22;1942;48.770;8.934;2022-07-12T14:34:52;30.80;64.80
3854;DHT22;1942;48.770;8.934;2022-07-12T14:37:19;30.80;64.00
3854;DHT22;1942;48.770;8.934;2022-07-12T14:39:46;30.80;63.40
3854;DHT22;1942;48.770;8.934;2022-07-12T14:42:13;30.80;66.10
3854;DHT22;1942;48.770;8.934;2022-07-12T14:44:40;31.00;67.60
3854;DHT22;1942;48.770;8.934;2022-07-12T14:47:07;31.00;64.50
3854;DHT22;1942;48.770;8.934;2022-07-12T14:49:34;30.90;65.00
3854;DHT22;1942;48.770;8.934;2022-07-12T14:52:04;30.70;65.50
3854;DHT22;1942;48.770;8.934;2022-07-12T14:54:32;30.60;65.60
3854;DHT22;1942;48.770;8.934;2022-07-12T14:56:59;30.70;64.10
3854;DHT22;1942;48.770;8.934;2022-07-12T14:59:26;30.60;70.60
3854;DHT22;1942;48.770;8.934;2022-07-12T15:01:53;30.60;62.40
3854;DHT22;1942;48.770;8.934;2022-07-12T15:04:20;30.50;63.20
3854;DHT22;1942;48.770;8.934;2022-07-12T15:06:47;30.50;65.20
3854;DHT22;1942;48.770;8.934;2022-07-12T15:09:15;30.60;65.20
3854;DHT22;1942;48.770;8.934;2022-07-12T15:11:42;30.30;61.60
3854;DHT22;1942;48.770;8.934;2022-07-12T15:14:09;30.40;63.80
3854;DHT22;1942;48.770;8.934;2022-07-12T15:16:36;30.20;61.60
3854;DHT22;1942;48.770;8.934;2022-07-12T15:19:03;30.30;66.80
3854;DHT22;1942;48.770;8.934;2022-07-12T15:21:29;30.60;65.90
3854;DHT22;1942;48.770;8.934;2022-07-12T15:23:56;30.40;63.90
3854;DHT22;1942;48.770;8.934;2022-07-12T15:26:24;30.50;65.60
3854;DHT22;1942;48.770;8.934;2022-07-12T15:28:53;30.40;66.40
3854;DHT22;1942;48.770;8.934;2022-07-12T15:31:21;30.50;65.70
3854;DHT22;1942;48.770;8.934;2022-07-12T15:33:48;30.50;65.70
3854;DHT22;1942;48.770;8.934;2022-07-12T15:36:15;30.40;64.60
3854;DHT22;1942;48.770;8.934;2022-07-12T15:38:42;30.40;66.50
3854;DHT22;1942;48.770;8.934;2022-07-12T15:41:10;30.30;67.50
3854;DHT22;1942;48.770;8.934;2022-07-12T15:43:39;30.50;67.60
3854;DHT22;1942;48.770;8.934;2022-07-12T15:46:06;30.40;67.60
3854;DHT22;1942;48.770;8.934;2022-07-12T15:48:33;30.30;64.50
3854;DHT22;1942;48.770;8.934;2022-07-12T15:51:00;30.20;64.40
3854;DHT22;1942;48.770;8.934;2022-07-12T15:53:27;30.30;65.20
3854;DHT22;1942;48.770;8.934;2022-07-12T15:55:55;30.20;66.60
3854;DHT22;1942;48.770;8.934;2022-07-12T15:58:24;30.10;64.40
3854;DHT22;1942;48.770;8.934;2022-07-12T16:00:52;29.70;63.50
3854;DHT22;1942;48.770;8.934;2022-07-12T16:03:19;29.30;64.20
3854;DHT22;1942;48.770;8.934;2022-07-12T16:05:46;29.30;64.80
3854;DHT22;1942;48.770;8.934;2022-07-12T16:08:13;29.20;67.40